sensor_id;sensor_type;location;lat;lon;timestamp;temperature;humidity
44729;DHT22;30457;53.590;9.922;2023-01-01T00:02:13;18.20;56.70
44729;DHT22;30457;53.590;9.922;2023-01-01T00:06:40;18.20;56.30
44729;DHT22;30457;53.590;9.922;2023-01-01T00:11:07;18.30;56.60
44729;DHT22;30457;53.590;9.922;2023-01-01T00:15:33;18.30;56.20
44729;DHT22;30457;53.590;9.922;2023-01-01T00:19:58;18.30;55.90
44729;DHT22;30457;53.590;9.922;2023-01-01T00:24:24;18.40;55.60
44729;DHT22;30457;53.590;9.922;2023-01-01T00:28:50;18.30;55.40
44729;DHT22;30457;53.590;9.922;2023-01-01T00:33:15;18.40;55.40
44729;DHT22;30457;53.590;9.922;2023-01-01T00:37:41;18.40;55.30
44729;DHT22;30457;53.590;9.922;2023-01-01T00:42:06;18.50;55.20
44729;DHT22;30457;53.590;9.922;2023-01-01T00:46:32;18.50;54.10
44729;DHT22;30457;53.590;9.922;2023-01-01T00:50:58;18.50;54.80
44729;DHT22;30457;53.590;9.922;2023-01-01T00:55:23;18.50;55.00
44729;DHT22;30457;53.590;9.922;2023-01-01T00:59:49;18.50;54.70
44729;DHT22;30457;53.590;9.922;2023-01-01T01:04:14;18.50;54.70
44729;DHT22;30457;53.590;9.922;2023-01-01T01:08:43;18.50;53.90
44729;DHT22;30457;53.590;9.922;2023-01-01T01:13:08;18.60;54.40
44729;DHT22;30457;53.590;9.922;2023-01-01T01:17:34;18.60;53.60
44729;DHT22;30457;53.590;9.922;2023-01-01T01:22:00;18.50;53.80
44729;DHT22;30457;53.590;9.922;2023-01-01T01:26:31;18.50;54.30
44729;DHT22;30457;53.590;9.922;2023-01-01T01:30:58;18.60;53.50
44729;DHT22;30457;53.590;9.922;2023-01-01T01:35:24;18.60;53.90
44729;DHT22;30457;53.590;9.922;2023-01-01T01:39:49;18.60;54.20
44729;DHT22;30457;53.590;9.922;2023-01-01T01:49:27;18.60;53.30
44729;DHT22;30457;53.590;9.922;2023-01-01T01:53:59;18.60;52.40
44729;DHT22;30457;53.590;9.922;2023-01-01T01:58:27;18.60;53.40
44729;DHT22;30457;53.590;9.922;2023-01-01T02:03:01;18.60;53.60
44729;DHT22;30457;53.590;9.922;2023-01-01T02:07:29;18.70;53.20
44729;DHT22;30457;53.590;9.922;2023-01-01T02:11:56;18.70;53.10
44729;DHT22;30457;53.590;9.922;2023-01-01T02:16:26;18.70;53.50
44729;DHT22;30457;53.590;9.922;2023-01-01T02:21:11;18.70;53.00
44729;DHT22;30457;53.590;9.922;2023-01-01T02:30:38;18.70;52.80
44729;DHT22;30457;53.590;9.922;2023-01-01T02:35:11;18.70;52.90
44729;DHT22;30457;53.590;9.922;2023-01-01T02:39:58;18.70;53.10
44729;DHT22;30457;53.590;9.922;2023-01-01T02:44:25;18.70;53.20
44729;DHT22;30457;53.590;9.922;2023-01-01T02:48:52;18.70;53.20
44729;DHT22;30457;53.590;9.922;2023-01-01T02:53:28;18.70;52.80
44729;DHT22;30457;53.590;9.922;2023-01-01T03:03:15;18.70;52.80
44729;DHT22;30457;53.590;9.922;2023-01-01T03:12:37;18.70;52.70
44729;DHT22;30457;53.590;9.922;2023-01-01T03:17:31;18.70;52.70
44729;DHT22;30457;53.590;9.922;2023-01-01T03:22:04;18.70;53.00
44729;DHT22;30457;53.590;9.922;2023-01-01T03:26:31;18.70;52.80
44729;DHT22;30457;53.590;9.922;2023-01-01T03:30:59;18.60;53.10
44729;DHT22;30457;53.590;9.922;2023-01-01T03:35:45;18.60;53.30
44729;DHT22;30457;53.590;9.922;2023-01-01T03:40:13;18.60;53.00
44729;DHT22;30457;53.590;9.922;2023-01-01T03:44:53;18.60;53.20
44729;DHT22;30457;53.590;9.922;2023-01-01T03:49:22;18.50;52.90
44729;DHT22;30457;53.590;9.922;2023-01-01T03:53:50;18.50;53.10
44729;DHT22;30457;53.590;9.922;2023-01-01T03:58:32;18.50;53.20
44729;DHT22;30457;53.590;9.922;2023-01-01T04:03:12;18.50;53.10
44729;DHT22;30457;53.590;9.922;2023-01-01T04:07:39;18.50;53.00
44729;DHT22;30457;53.590;9.922;2023-01-01T04:12:05;18.50;53.60
44729;DHT22;30457;53.590;9.922;2023-01-01T04:16:31;18.50;53.70
44729;DHT22;30457;53.590;9.922;2023-01-01T04:20:57;18.40;53.50
44729;DHT22;30457;53.590;9.922;2023-01-01T04:25:22;18.40;53.80
44729;DHT22;30457;53.590;9.922;2023-01-01T04:29:48;18.40;53.70
44729;DHT22;30457;53.590;9.922;2023-01-01T04:34:14;18.40;53.60
44729;DHT22;30457;53.590;9.922;2023-01-01T04:38:40;18.40;53.50
44729;DHT22;30457;53.590;9.922;2023-01-01T04:43:05;18.40;53.60
44729;DHT22;30457;53.590;9.922;2023-01-01T04:47:31;18.40;53.70
44729;DHT22;30457;53.590;9.922;2023-01-01T04:51:56;18.40;53.80
44729;DHT22;30457;53.590;9.922;2023-01-01T04:56:22;18.40;53.70
44729;DHT22;30457;53.590;9.922;2023-01-01T05:00:51;18.40;53.80
44729;DHT22;30457;53.590;9.922;2023-01-01T05:05:16;18.40;53.50
44729;DHT22;30457;53.590;9.922;2023-01-01T05:09:43;18.40;53.50
44729;DHT22;30457;53.590;9.922;2023-01-01T05:14:09;18.40;53.20
44729;DHT22;30457;53.590;9.922;2023-01-01T05:18:36;18.40;53.20
44729;DHT22;30457;53.590;9.922;2023-01-01T05:23:02;18.40;53.00
44729;DHT22;30457;53.590;9.922;2023-01-01T05:27:27;18.40;53.00
44729;DHT22;30457;53.590;9.922;2023-01-01T05:31:53;18.40;52.70
44729;DHT22;30457;53.590;9.922;2023-01-01T05:36:24;18.40;52.80
44729;DHT22;30457;53.590;9.922;2023-01-01T05:40:50;18.40;52.60
44729;DHT22;30457;53.590;9.922;2023-01-01T05:45:15;18.40;52.70
44729;DHT22;30457;53.590;9.922;2023-01-01T05:49:41;18.40;51.90
44729;DHT22;30457;53.590;9.922;2023-01-01T05:54:09;18.40;52.50
44729;DHT22;30457;53.590;9.922;2023-01-01T05:58:35;18.50;52.70
44729;DHT22;30457;53.590;9.922;2023-01-01T06:03:01;18.50;52.10
44729;DHT22;30457;53.590;9.922;2023-01-01T06:07:26;18.50;52.00
44729;DHT22;30457;53.590;9.922;2023-01-01T06:11:52;18.50;51.70
44729;DHT22;30457;53.590;9.922;2023-01-01T06:16:19;18.50;51.60
44729;DHT22;30457;53.590;9.922;2023-01-01T06:20:44;18.50;51.40
44729;DHT22;30457;53.590;9.922;2023-01-01T06:25:10;18.50;51.40
44729;DHT22;30457;53.590;9.922;2023-01-01T06:29:36;18.50;51.10
44729;DHT22;30457;53.590;9.922;2023-01-01T06:34:02;18.50;51.40
44729;DHT22;30457;53.590;9.922;2023-01-01T06:38:30;18.50;51.30
44729;DHT22;30457;53.590;9.922;2023-01-01T06:42:56;18.50;51.10
44729;DHT22;30457;53.590;9.922;2023-01-01T06:47:21;18.50;51.10
44729;DHT22;30457;53.590;9.922;2023-01-01T06:51:47;18.50;51.00
44729;DHT22;30457;53.590;9.922;2023-01-01T06:56:13;18.50;50.80
44729;DHT22;30457;53.590;9.922;2023-01-01T07:00:38;18.50;50.20
44729;DHT22;30457;53.590;9.922;2023-01-01T07:05:04;18.50;49.80
44729;DHT22;30457;53.590;9.922;2023-01-01T07:09:29;18.50;50.60
44729;DHT22;30457;53.590;9.922;2023-01-01T07:13:55;18.40;50.60
44729;DHT22;30457;53.590;9.922;2023-01-01T07:18:22;18.40;50.30
44729;DHT22;30457;53.590;9.922;2023-01-01T07:22:48;18.40;50.30
44729;DHT22;30457;53.590;9.922;2023-01-01T07:27:14;18.40;50.60
44729;DHT22;30457;53.590;9.922;2023-01-01T07:31:40;18.30;50.50
44729;DHT22;30457;53.590;9.922;2023-01-01T07:36:07;18.30;50.60
44729;DHT22;30457;53.590;9.922;2023-01-01T07:40:33;18.30;50.50
44729;DHT22;30457;53.590;9.922;2023-01-01T07:44:58;18.30;50.30
44729;DHT22;30457;53.590;9.922;2023-01-01T07:49:24;18.30;50.40
44729;DHT22;30457;53.590;9.922;2023-01-01T07:53:49;18.30;50.30
44729;DHT22;30457;53.590;9.922;2023-01-01T07:58:15;18.20;50.20
44729;DHT22;30457;53.590;9.922;2023-01-01T08:02:41;18.20;49.90
44729;DHT22;30457;53.590;9.922;2023-01-01T08:07:06;18.20;50.00
44729;DHT22;30457;53.590;9.922;2023-01-01T08:11:32;18.20;49.70
44729;DHT22;30457;53.590;9.922;2023-01-01T08:15:58;18.20;48.70
44729;DHT22;30457;53.590;9.922;2023-01-01T08:20:24;18.20;49.00
44729;DHT22;30457;53.590;9.922;2023-01-01T08:24:50;18.20;49.50
44729;DHT22;30457;53.590;9.922;2023-01-01T08:29:16;18.10;49.30
44729;DHT22;30457;53.590;9.922;2023-01-01T08:33:41;18.10;49.10
44729;DHT22;30457;53.590;9.922;2023-01-01T08:38:10;18.10;49.20
44729;DHT22;30457;53.590;9.922;2023-01-01T08:42:36;18.10;48.40
44729;DHT22;30457;53.590;9.922;2023-01-01T08:47:01;18.00;49.00
44729;DHT22;30457;53.590;9.922;2023-01-01T08:51:27;18.00;48.60
44729;DHT22;30457;53.590;9.922;2023-01-01T08:55:57;18.00;47.70
44729;DHT22;30457;53.590;9.922;2023-01-01T09:00:23;18.00;48.60
44729;DHT22;30457;53.590;9.922;2023-01-01T09:04:48;18.00;48.30
44729;DHT22;30457;53.590;9.922;2023-01-01T09:09:14;18.00;47.80
44729;DHT22;30457;53.590;9.922;2023-01-01T09:13:39;18.00;48.40
44729;DHT22;30457;53.590;9.922;2023-01-01T09:18:05;18.00;48.40
44729;DHT22;30457;53.590;9.922;2023-01-01T09:22:30;18.00;46.90
44729;DHT22;30457;53.590;9.922;2023-01-01T09:26:57;18.00;47.40
44729;DHT22;30457;53.590;9.922;2023-01-01T09:31:23;18.00;47.10
44729;DHT22;30457;53.590;9.922;2023-01-01T09:35:48;18.00;47.50
44729;DHT22;30457;53.590;9.922;2023-01-01T09:45:16;18.00;47.60
44729;DHT22;30457;53.590;9.922;2023-01-01T09:49:45;18.00;46.60
44729;DHT22;30457;53.590;9.922;2023-01-01T09:54:27;17.90;47.20
44729;DHT22;30457;53.590;9.922;2023-01-01T09:58:54;17.90;46.90
44729;DHT22;30457;53.590;9.922;2023-01-01T10:03:39;17.90;47.60
44729;DHT22;30457;53.590;9.922;2023-01-01T10:17:19;17.80;46.60
44729;DHT22;30457;53.590;9.922;2023-01-01T10:21:48;17.90;47.00
44729;DHT22;30457;53.590;9.922;2023-01-01T10:26:18;17.90;46.80
44729;DHT22;30457;53.590;9.922;2023-01-01T10:30:44;17.90;47.40
44729;DHT22;30457;53.590;9.922;2023-01-01T10:35:16;17.90;47.70
44729;DHT22;30457;53.590;9.922;2023-01-01T10:39:44;17.90;47.90
44729;DHT22;30457;53.590;9.922;2023-01-01T10:44:11;18.00;48.20
44729;DHT22;30457;53.590;9.922;2023-01-01T10:48:37;18.00;47.70
44729;DHT22;30457;53.590;9.922;2023-01-01T10:53:03;18.00;47.50
44729;DHT22;30457;53.590;9.922;2023-01-01T11:02:25;18.10;46.80
44729;DHT22;30457;53.590;9.922;2023-01-01T11:06:51;18.10;46.80
44729;DHT22;30457;53.590;9.922;2023-01-01T11:11:43;18.10;46.60
44729;DHT22;30457;53.590;9.922;2023-01-01T11:16:10;18.10;47.00
44729;DHT22;30457;53.590;9.922;2023-01-01T11:20:36;18.10;47.20
44729;DHT22;30457;53.590;9.922;2023-01-01T11:25:09;18.10;47.00
44729;DHT22;30457;53.590;9.922;2023-01-01T11:29:40;18.00;45.40
44729;DHT22;30457;53.590;9.922;2023-01-01T11:39:19;18.00;45.60
44729;DHT22;30457;53.590;9.922;2023-01-01T11:43:46;17.90;44.90
44729;DHT22;30457;53.590;9.922;2023-01-01T11:48:30;17.90;45.30
44729;DHT22;30457;53.590;9.922;2023-01-01T11:52:58;17.90;45.40
44729;DHT22;30457;53.590;9.922;2023-01-01T11:58:05;17.90;45.20
44729;DHT22;30457;53.590;9.922;2023-01-01T12:02:36;17.80;44.80
44729;DHT22;30457;53.590;9.922;2023-01-01T12:07:12;17.80;44.70
44729;DHT22;30457;53.590;9.922;2023-01-01T12:11:51;17.80;45.60
44729;DHT22;30457;53.590;9.922;2023-01-01T12:16:26;17.70;45.10
44729;DHT22;30457;53.590;9.922;2023-01-01T12:21:16;17.70;45.40
44729;DHT22;30457;53.590;9.922;2023-01-01T12:25:46;17.70;44.90
44729;DHT22;30457;53.590;9.922;2023-01-01T12:30:18;17.70;45.70
44729;DHT22;30457;53.590;9.922;2023-01-01T12:39:54;17.70;45.30
44729;DHT22;30457;53.590;9.922;2023-01-01T12:44:57;17.70;44.50
44729;DHT22;30457;53.590;9.922;2023-01-01T12:49:41;17.70;45.20
44729;DHT22;30457;53.590;9.922;2023-01-01T12:54:34;17.70;45.40
44729;DHT22;30457;53.590;9.922;2023-01-01T12:59:17;17.70;45.40
44729;DHT22;30457;53.590;9.922;2023-01-01T13:03:58;17.70;45.70
44729;DHT22;30457;53.590;9.922;2023-01-01T13:08:24;17.70;46.00
44729;DHT22;30457;53.590;9.922;2023-01-01T13:12:52;17.70;45.50
44729;DHT22;30457;53.590;9.922;2023-01-01T13:17:35;17.70;46.00
44729;DHT22;30457;53.590;9.922;2023-01-01T13:26:50;17.60;46.10
44729;DHT22;30457;53.590;9.922;2023-01-01T13:31:16;17.60;46.40
44729;DHT22;30457;53.590;9.922;2023-01-01T13:35:41;17.50;46.40
44729;DHT22;30457;53.590;9.922;2023-01-01T13:44:35;17.40;46.20
44729;DHT22;30457;53.590;9.922;2023-01-01T14:03:26;17.20;46.50
44729;DHT22;30457;53.590;9.922;2023-01-01T14:07:54;17.10;46.70
44729;DHT22;30457;53.590;9.922;2023-01-01T14:12:21;17.10;47.00
44729;DHT22;30457;53.590;9.922;2023-01-01T14:16:46;17.00;47.30
44729;DHT22;30457;53.590;9.922;2023-01-01T14:21:20;17.00;47.30
44729;DHT22;30457;53.590;9.922;2023-01-01T14:25:46;16.90;47.20
44729;DHT22;30457;53.590;9.922;2023-01-01T14:30:16;16.90;47.50
44729;DHT22;30457;53.590;9.922;2023-01-01T14:34:43;16.90;47.50
44729;DHT22;30457;53.590;9.922;2023-01-01T14:39:26;16.80;47.70
44729;DHT22;30457;53.590;9.922;2023-01-01T14:43:55;16.80;47.60
44729;DHT22;30457;53.590;9.922;2023-01-01T14:48:21;16.70;47.60
44729;DHT22;30457;53.590;9.922;2023-01-01T14:52:57;16.70;48.00
44729;DHT22;30457;53.590;9.922;2023-01-01T14:57:29;16.60;47.90
44729;DHT22;30457;53.590;9.922;2023-01-01T15:02:21;16.60;48.10
44729;DHT22;30457;53.590;9.922;2023-01-01T15:07:00;16.50;48.10
44729;DHT22;30457;53.590;9.922;2023-01-01T15:11:25;16.50;48.20
44729;DHT22;30457;53.590;9.922;2023-01-01T15:15:53;16.40;48.40
44729;DHT22;30457;53.590;9.922;2023-01-01T15:20:21;16.40;48.40
44729;DHT22;30457;53.590;9.922;2023-01-01T15:24:48;16.30;48.60
44729;DHT22;30457;53.590;9.922;2023-01-01T15:29:27;16.30;48.80
44729;DHT22;30457;53.590;9.922;2023-01-01T15:33:53;16.20;48.80
44729;DHT22;30457;53.590;9.922;2023-01-01T15:38:21;16.20;49.10
44729;DHT22;30457;53.590;9.922;2023-01-01T15:47:19;16.10;49.30
44729;DHT22;30457;53.590;9.922;2023-01-01T15:51:55;16.00;49.40
44729;DHT22;30457;53.590;9.922;2023-01-01T15:56:24;16.00;50.20
44729;DHT22;30457;53.590;9.922;2023-01-01T16:00:55;16.00;49.80
44729;DHT22;30457;53.590;9.922;2023-01-01T16:05:25;16.00;49.90
44729;DHT22;30457;53.590;9.922;2023-01-01T16:09:52;15.90;50.00
44729;DHT22;30457;53.590;9.922;2023-01-01T16:14:18;15.90;50.10
44729;DHT22;30457;53.590;9.922;2023-01-01T16:18:44;15.90;50.30
44729;DHT22;30457;53.590;9.922;2023-01-01T16:23:10;15.90;50.40
44729;DHT22;30457;53.590;9.922;2023-01-01T16:27:36;15.90;50.60
44729;DHT22;30457;53.590;9.922;2023-01-01T16:32:02;15.90;50.70
44729;DHT22;30457;53.590;9.922;2023-01-01T16:36:28;15.80;50.90
44729;DHT22;30457;53.590;9.922;2023-01-01T16:40:54;15.80;51.10
44729;DHT22;30457;53.590;9.922;2023-01-01T16:45:19;15.80;51.30
44729;DHT22;30457;53.590;9.922;2023-01-01T16:49:45;15.80;51.50
44729;DHT22;30457;53.590;9.922;2023-01-01T16:54:11;15.80;51.60
44729;DHT22;30457;53.590;9.922;2023-01-01T16:58:37;15.80;51.70
44729;DHT22;30457;53.590;9.922;2023-01-01T17:03:03;15.70;51.80
44729;DHT22;30457;53.590;9.922;2023-01-01T17:07:28;15.80;52.00
44729;DHT22;30457;53.590;9.922;2023-01-01T17:11:54;15.70;52.20
44729;DHT22;30457;53.590;9.922;2023-01-01T17:16:19;15.70;52.30
44729;DHT22;30457;53.590;9.922;2023-01-01T17:20:45;15.80;52.50
44729;DHT22;30457;53.590;9.922;2023-01-01T17:25:11;15.70;52.60
44729;DHT22;30457;53.590;9.922;2023-01-01T17:29:37;15.70;52.80
44729;DHT22;30457;53.590;9.922;2023-01-01T17:34:03;15.70;53.00
44729;DHT22;30457;53.590;9.922;2023-01-01T17:38:29;15.70;53.10
44729;DHT22;30457;53.590;9.922;2023-01-01T17:42:54;15.70;53.20
44729;DHT22;30457;53.590;9.922;2023-01-01T17:47:20;15.60;53.30
44729;DHT22;30457;53.590;9.922;2023-01-01T17:51:46;15.60;53.50
44729;DHT22;30457;53.590;9.922;2023-01-01T17:56:13;15.60;53.70
44729;DHT22;30457;53.590;9.922;2023-01-01T18:00:39;15.60;53.90
44729;DHT22;30457;53.590;9.922;2023-01-01T18:05:05;15.60;53.90
44729;DHT22;30457;53.590;9.922;2023-01-01T18:09:30;15.60;54.10
44729;DHT22;30457;53.590;9.922;2023-01-01T18:13:57;15.60;54.20
44729;DHT22;30457;53.590;9.922;2023-01-01T18:18:24;15.60;55.00
44729;DHT22;30457;53.590;9.922;2023-01-01T18:22:52;15.60;55.10
44729;DHT22;30457;53.590;9.922;2023-01-01T18:27:17;15.60;54.70
44729;DHT22;30457;53.590;9.922;2023-01-01T18:31:43;15.60;54.70
44729;DHT22;30457;53.590;9.922;2023-01-01T18:36:12;15.60;54.80
44729;DHT22;30457;53.590;9.922;2023-01-01T18:40:46;15.60;55.00
44729;DHT22;30457;53.590;9.922;2023-01-01T18:45:17;15.60;55.20
44729;DHT22;30457;53.590;9.922;2023-01-01T18:49:47;15.50;55.10
44729;DHT22;30457;53.590;9.922;2023-01-01T18:54:12;15.50;55.20
44729;DHT22;30457;53.590;9.922;2023-01-01T18:58:42;15.50;55.20
44729;DHT22;30457;53.590;9.922;2023-01-01T19:03:19;15.50;55.50
44729;DHT22;30457;53.590;9.922;2023-01-01T19:08:17;15.50;55.60
44729;DHT22;30457;53.590;9.922;2023-01-01T19:12:42;15.50;55.60
44729;DHT22;30457;53.590;9.922;2023-01-01T19:17:14;15.50;55.50
44729;DHT22;30457;53.590;9.922;2023-01-01T19:21:41;15.50;55.70
44729;DHT22;30457;53.590;9.922;2023-01-01T19:26:13;15.50;55.60
44729;DHT22;30457;53.590;9.922;2023-01-01T19:30:43;15.50;55.90
44729;DHT22;30457;53.590;9.922;2023-01-01T19:35:09;15.50;55.40
44729;DHT22;30457;53.590;9.922;2023-01-01T19:39:34;15.50;55.60
44729;DHT22;30457;53.590;9.922;2023-01-01T19:44:01;15.50;55.80
44729;DHT22;30457;53.590;9.922;2023-01-01T19:48:26;15.50;55.90
44729;DHT22;30457;53.590;9.922;2023-01-01T19:52:53;15.50;56.00
44729;DHT22;30457;53.590;9.922;2023-01-01T19:57:19;15.50;56.00
44729;DHT22;30457;53.590;9.922;2023-01-01T20:01:45;15.50;56.00
44729;DHT22;30457;53.590;9.922;2023-01-01T20:06:10;15.50;56.00
44729;DHT22;30457;53.590;9.922;2023-01-01T20:10:36;15.50;56.00
44729;DHT22;30457;53.590;9.922;2023-01-01T20:15:02;15.50;56.00
44729;DHT22;30457;53.590;9.922;2023-01-01T20:19:28;15.50;56.00
44729;DHT22;30457;53.590;9.922;2023-01-01T20:23:54;15.60;56.10
44729;DHT22;30457;53.590;9.922;2023-01-01T20:28:20;15.60;56.20
44729;DHT22;30457;53.590;9.922;2023-01-01T20:33:04;15.60;56.30
44729;DHT22;30457;53.590;9.922;2023-01-01T20:37:30;15.60;56.60
44729;DHT22;30457;53.590;9.922;2023-01-01T20:42:02;15.60;56.90
44729;DHT22;30457;53.590;9.922;2023-01-01T20:46:28;15.60;57.00
44729;DHT22;30457;53.590;9.922;2023-01-01T20:50:56;15.60;57.20
44729;DHT22;30457;53.590;9.922;2023-01-01T20:55:22;15.60;57.10
44729;DHT22;30457;53.590;9.922;2023-01-01T20:59:47;15.60;57.20
44729;DHT22;30457;53.590;9.922;2023-01-01T21:04:13;15.60;57.30
44729;DHT22;30457;53.590;9.922;2023-01-01T21:08:38;15.60;57.30
44729;DHT22;30457;53.590;9.922;2023-01-01T21:13:05;15.50;57.30
44729;DHT22;30457;53.590;9.922;2023-01-01T21:17:31;15.50;57.30
44729;DHT22;30457;53.590;9.922;2023-01-01T21:21:58;15.50;57.30
44729;DHT22;30457;53.590;9.922;2023-01-01T21:26:31;15.50;57.30
44729;DHT22;30457;53.590;9.922;2023-01-01T21:30:59;15.40;57.60
44729;DHT22;30457;53.590;9.922;2023-01-01T21:35:36;15.40;57.30
44729;DHT22;30457;53.590;9.922;2023-01-01T21:44:55;15.40;57.80
44729;DHT22;30457;53.590;9.922;2023-01-01T21:49:25;15.40;57.60
44729;DHT22;30457;53.590;9.922;2023-01-01T21:54:01;15.30;57.50
44729;DHT22;30457;53.590;9.922;2023-01-01T21:58:35;15.30;57.70
44729;DHT22;30457;53.590;9.922;2023-01-01T22:03:21;15.30;57.50
44729;DHT22;30457;53.590;9.922;2023-01-01T22:07:46;15.30;57.50
44729;DHT22;30457;53.590;9.922;2023-01-01T22:16:39;15.30;57.40
44729;DHT22;30457;53.590;9.922;2023-01-01T22:21:10;15.30;57.30
44729;DHT22;30457;53.590;9.922;2023-01-01T22:25:36;15.30;57.20
44729;DHT22;30457;53.590;9.922;2023-01-01T22:30:38;15.20;57.20
44729;DHT22;30457;53.590;9.922;2023-01-01T22:35:12;15.20;57.50
44729;DHT22;30457;53.590;9.922;2023-01-01T22:39:39;15.20;57.30
44729;DHT22;30457;53.590;9.922;2023-01-01T22:44:04;15.20;57.10
44729;DHT22;30457;53.590;9.922;2023-01-01T22:48:34;15.20;57.10
44729;DHT22;30457;53.590;9.922;2023-01-01T22:53:00;15.20;57.30
44729;DHT22;30457;53.590;9.922;2023-01-01T22:57:26;15.20;57.30
44729;DHT22;30457;53.590;9.922;2023-01-01T23:01:52;15.10;57.30
44729;DHT22;30457;53.590;9.922;2023-01-01T23:06:18;15.10;57.20
44729;DHT22;30457;53.590;9.922;2023-01-01T23:10:44;15.10;57.20
44729;DHT22;30457;53.590;9.922;2023-01-01T23:15:09;15.10;57.20
44729;DHT22;30457;53.590;9.922;2023-01-01T23:19:54;15.10;57.40
44729;DHT22;30457;53.590;9.922;2023-01-01T23:24:23;15.10;57.40
44729;DHT22;30457;53.590;9.922;2023-01-01T23:28:49;15.10;57.50
44729;DHT22;30457;53.590;9.922;2023-01-01T23:33:15;15.10;57.60
44729;DHT22;30457;53.590;9.922;2023-01-01T23:37:41;15.10;57.60
44729;DHT22;30457;53.590;9.922;2023-01-01T23:42:07;15.10;57.60
44729;DHT22;30457;53.590;9.922;2023-01-01T23:46:34;15.10;57.70
44729;DHT22;30457;53.590;9.922;2023-01-01T23:51:01;15.10;57.80
44729;DHT22;30457;53.590;9.922;2023-01-01T23:55:26;15.10;57.70
44729;DHT22;30457;53.590;9.922;2023-01-01T23:59:52;15.00;57.70
